Time;durP1;ratioP1;P1;durP2;ratioP2;P2;SDS_P1;SDS_P2;PMS_P1;PMS_P2;Temp;Humidity;BMP_temperature;BMP_pressure;BME280_temperature;BME280_humidity;BME280_pressure;Samples;Min_cycle;Max_cycle;Signal;HPM_P1;HPM_P2
2021/11/04 00:00:48;;;;;;;12.13;9.90;;;9.30;99.90;;;;;;5138731;28;20245;-80
2021/11/04 00:03:14;;;;;;;15.17;9.30;;;9.30;99.90;;;;;;5138645;27;20181;-80
2021/11/04 00:05:40;;;;;;;7.33;6.60;;;9.40;99.90;;;;;;5135346;28;20366;-82
2021/11/04 00:08:06;;;;;;;10.27;7.43;;;9.40;99.90;;;;;;5114216;28;20182;-82
2021/11/04 00:10:33;;;;;;;10.33;8.50;;;9.40;99.90;;;;;;5132907;28;20173;-82
2021/11/04 00:13:00;;;;;;;9.63;7.50;;;9.40;99.90;;;;;;5136336;28;20396;-80
2021/11/04 00:15:26;;;;;;;15.20;10.50;;;9.40;99.90;;;;;;5138576;27;20399;-82
2021/11/04 00:17:52;;;;;;;11.87;8.20;;;9.40;99.90;;;;;;5136379;28;20471;-82
2021/11/04 00:20:19;;;;;;;9.93;7.73;;;9.40;99.90;;;;;;5135818;28;20217;-82
2021/11/04 00:22:46;;;;;;;10.60;7.77;;;9.40;99.90;;;;;;5116852;28;20427;-81
2021/11/04 00:25:13;;;;;;;9.40;8.10;;;9.40;99.90;;;;;;5136409;28;20418;-80
2021/11/04 00:27:39;;;;;;;10.07;8.43;;;9.30;99.90;;;;;;5137169;28;20366;-79
2021/11/04 00:30:06;;;;;;;11.67;8.13;;;9.30;99.90;;;;;;5119897;28;20427;-79
2021/11/04 00:32:33;;;;;;;11.00;6.90;;;9.30;99.90;;;;;;5137391;28;20176;-80
2021/11/04 00:34:59;;;;;;;12.07;8.43;;;9.30;99.90;;;;;;5132106;28;20400;-82
2021/11/04 00:37:25;;;;;;;10.13;8.17;;;9.30;99.90;;;;;;5132314;28;20467;-82
2021/11/04 00:39:51;;;;;;;12.60;8.10;;;9.20;99.90;;;;;;5132506;28;20154;-82
2021/11/04 00:42:17;;;;;;;16.40;11.63;;;9.20;99.90;;;;;;5132445;28;20420;-83
2021/11/04 00:44:42;;;;;;;9.47;8.30;;;9.20;99.90;;;;;;5131508;28;20392;-82
2021/11/04 00:47:08;;;;;;;10.20;9.00;;;9.20;99.90;;;;;;5113031;28;20174;-82
2021/11/04 00:49:35;;;;;;;12.97;9.67;;;9.30;99.90;;;;;;5132289;28;20491;-82
2021/11/04 00:52:01;;;;;;;15.03;9.70;;;9.40;99.90;;;;;;5133072;28;20162;-81
2021/11/04 00:54:26;;;;;;;10.00;7.80;;;9.40;99.90;;;;;;5133197;28;20407;-82
2021/11/04 00:56:52;;;;;;;12.97;9.50;;;9.40;99.90;;;;;;5133482;28;20634;-82
2021/11/04 00:59:18;;;;;;;12.27;8.60;;;9.40;99.90;;;;;;5131727;28;20170;-82
2021/11/04 01:01:44;;;;;;;10.20;9.03;;;9.40;99.90;;;;;;5131485;28;20158;-82
2021/11/04 01:04:13;;;;;;;14.73;9.70;;;9.30;99.90;;;;;;5117952;28;20184;-82
2021/11/04 01:06:39;;;;;;;12.30;9.50;;;9.10;99.90;;;;;;5134707;28;20395;-82
2021/11/04 01:09:04;;;;;;;17.03;9.23;;;9.10;99.90;;;;;;5116959;28;20162;-82
2021/11/04 01:11:32;;;;;;;11.93;10.27;;;9.10;99.90;;;;;;5134497;28;20591;-82
2021/11/04 01:13:58;;;;;;;12.67;10.07;;;9.10;99.90;;;;;;5134740;28;20163;-82
2021/11/04 01:16:23;;;;;;;12.17;8.77;;;9.20;99.90;;;;;;5134849;28;20550;-82
2021/11/04 01:18:49;;;;;;;14.93;9.87;;;9.20;99.90;;;;;;5134606;28;20162;-82
2021/11/04 01:21:15;;;;;;;14.23;10.00;;;9.20;99.90;;;;;;5134440;28;20200;-82
2021/11/04 01:23:41;;;;;;;12.40;9.73;;;9.20;99.90;;;;;;5134630;28;20417;-82
2021/11/04 01:26:07;;;;;;;10.13;9.00;;;9.30;99.90;;;;;;5116888;28;20165;-82
2021/11/04 01:28:33;;;;;;;11.40;10.00;;;9.30;99.90;;;;;;5135102;28;20463;-82
2021/11/04 01:30:59;;;;;;;14.30;10.17;;;9.40;99.90;;;;;;5135034;28;20237;-82
2021/11/04 01:33:25;;;;;;;12.60;9.60;;;9.40;99.90;;;;;;5134655;28;20196;-82
2021/11/04 01:35:51;;;;;;;13.43;9.93;;;9.40;99.90;;;;;;5131093;28;20435;-82
2021/11/04 01:38:18;;;;;;;10.90;9.43;;;9.40;99.90;;;;;;5113662;28;20189;-82
2021/11/04 01:40:44;;;;;;;14.43;10.33;;;9.30;99.90;;;;;;5079015;28;20155;-83
2021/11/04 01:43:10;;;;;;;12.70;10.00;;;9.30;99.90;;;;;;5114315;28;20423;-82
2021/11/04 01:45:36;;;;;;;12.00;10.73;;;9.40;99.90;;;;;;5114509;28;20447;-82
2021/11/04 01:48:03;;;;;;;11.97;9.53;;;9.40;99.90;;;;;;5114276;28;20371;-82
2021/11/04 01:50:29;;;;;;;13.13;10.50;;;9.40;99.90;;;;;;5113939;28;20385;-82
2021/11/04 01:52:55;;;;;;;12.63;10.47;;;9.30;99.90;;;;;;5114187;28;20423;-82
2021/11/04 01:55:25;;;;;;;10.57;8.37;;;9.30;99.90;;;;;;5114871;28;20381;-83
2021/11/04 01:57:53;;;;;;;12.93;11.40;;;9.30;99.90;;;;;;5098359;28;20436;-82
2021/11/04 02:00:22;;;;;;;15.07;11.23;;;9.30;99.90;;;;;;5098811;28;20401;-82
2021/11/04 02:03:00;;;;;;;11.60;10.40;;;9.30;99.90;;;;;;5097254;28;20360;-82
2021/11/04 02:05:35;;;;;;;23.90;11.47;;;9.40;99.90;;;;;;5114282;28;20375;-82
2021/11/04 02:08:08;;;;;;;17.40;12.40;;;9.40;99.90;;;;;;5114723;28;20420;-82
2021/11/04 02:10:41;;;;;;;15.53;10.90;;;9.40;99.90;;;;;;5114782;28;20392;-82
2021/11/04 02:13:16;;;;;;;14.20;11.30;;;9.50;99.90;;;;;;5113971;28;20391;-82
2021/11/04 02:15:45;;;;;;;16.10;11.10;;;9.40;99.90;;;;;;5113468;28;20388;-83
2021/11/04 02:18:13;;;;;;;13.97;11.90;;;9.40;99.90;;;;;;5113766;28;20377;-82
2021/11/04 02:20:50;;;;;;;16.40;11.87;;;9.40;99.90;;;;;;5112995;28;20397;-83
2021/11/04 02:23:40;;;;;;;16.03;11.53;;;9.40;99.90;;;;;;5050983;28;20407;-82
2021/11/04 02:26:06;;;;;;;14.50;10.33;;;9.40;99.90;;;;;;5034153;28;20419;-82
2021/11/04 02:28:34;;;;;;;13.57;11.27;;;9.30;99.90;;;;;;5051200;28;20415;-82
2021/11/04 02:31:02;;;;;;;14.27;11.40;;;9.40;99.90;;;;;;5050522;28;20384;-82
2021/11/04 02:33:29;;;;;;;15.50;10.70;;;9.40;99.90;;;;;;5050738;28;20459;-82
2021/11/04 02:35:55;;;;;;;17.60;12.10;;;9.30;99.90;;;;;;5054391;28;20451;-82
2021/11/04 02:38:26;;;;;;;15.87;11.90;;;9.30;99.90;;;;;;5071015;28;20438;-82
2021/11/04 02:40:53;;;;;;;17.17;11.63;;;9.30;99.90;;;;;;5070376;28;20837;-82
2021/11/04 02:43:19;;;;;;;21.67;11.67;;;9.30;99.90;;;;;;5070560;28;20407;-82
2021/11/04 02:45:47;;;;;;;19.00;11.40;;;9.30;99.90;;;;;;5070794;28;20421;-82
2021/11/04 02:48:17;;;;;;;19.60;10.03;;;9.40;99.90;;;;;;5037366;28;20411;-81
2021/11/04 02:50:46;;;;;;;18.57;11.60;;;9.40;99.90;;;;;;5069618;28;20366;-82
2021/11/04 02:53:16;;;;;;;14.63;11.17;;;9.30;99.90;;;;;;5075653;28;20380;-82
2021/11/04 02:55:42;;;;;;;14.50;10.63;;;9.30;99.90;;;;;;5132822;28;20396;-83
2021/11/04 02:58:11;;;;;;;18.60;11.17;;;9.30;99.90;;;;;;5115094;28;20395;-81
2021/11/04 03:00:40;;;;;;;15.10;9.93;;;9.30;99.90;;;;;;5114477;28;20423;-82
2021/11/04 03:03:06;;;;;;;17.10;11.67;;;9.30;99.90;;;;;;5131951;28;20384;-82
2021/11/04 03:05:34;;;;;;;16.77;11.13;;;9.30;99.90;;;;;;5132633;28;20392;-82
2021/11/04 03:08:00;;;;;;;16.90;11.50;;;9.30;99.90;;;;;;5132663;28;20400;-82
2021/11/04 03:10:26;;;;;;;17.60;11.40;;;9.30;99.90;;;;;;5132292;28;20405;-82
2021/11/04 03:12:52;;;;;;;18.93;12.00;;;9.30;99.90;;;;;;5114060;28;20224;-82
2021/11/04 03:15:21;;;;;;;18.13;12.87;;;9.30;99.90;;;;;;5132523;28;20189;-82
2021/11/04 03:17:49;;;;;;;20.23;12.23;;;9.20;99.90;;;;;;5114566;28;20471;-82
2021/11/04 03:20:17;;;;;;;13.20;10.93;;;9.30;99.90;;;;;;5113666;28;20420;-82
2021/11/04 03:22:44;;;;;;;17.43;12.77;;;9.30;99.90;;;;;;5132462;28;20510;-82
2021/11/04 03:25:14;;;;;;;18.97;11.40;;;9.30;99.90;;;;;;5132271;28;20400;-82
2021/11/04 03:27:43;;;;;;;16.87;10.83;;;9.30;99.90;;;;;;5132097;28;20394;-82
2021/11/04 03:30:12;;;;;;;16.97;11.20;;;9.30;99.90;;;;;;5132719;28;20392;-82
2021/11/04 03:32:41;;;;;;;18.10;11.53;;;9.30;99.90;;;;;;5132632;28;20396;-82
2021/11/04 03:35:09;;;;;;;15.10;11.27;;;9.20;99.90;;;;;;5113118;28;20418;-81
2021/11/04 03:37:37;;;;;;;23.97;11.90;;;9.20;99.90;;;;;;5112951;28;20502;-81
2021/11/04 03:40:05;;;;;;;16.73;11.40;;;9.20;99.90;;;;;;5110700;28;20458;-82
2021/11/04 03:42:31;;;;;;;14.97;11.97;;;9.20;99.90;;;;;;5110469;28;20378;-82
2021/11/04 03:45:00;;;;;;;17.67;11.07;;;9.20;99.90;;;;;;5110688;28;20460;-82
2021/11/04 03:47:30;;;;;;;15.63;11.77;;;9.20;99.90;;;;;;5076178;28;20423;-82
2021/11/04 03:49:58;;;;;;;17.43;10.80;;;9.10;99.90;;;;;;5109476;28;20404;-82
2021/11/04 03:52:24;;;;;;;16.27;10.20;;;9.10;99.90;;;;;;5109898;28;20404;-81
2021/11/04 03:54:50;;;;;;;18.95;14.07;;;9.10;99.90;;;;;;5106301;28;20411;-81
2021/11/04 03:57:18;;;;;;;19.13;11.13;;;9.10;99.90;;;;;;5089635;28;20273;-80
2021/11/04 03:59:45;;;;;;;17.13;11.17;;;9.10;99.90;;;;;;5072379;28;20385;-81
2021/11/04 04:02:12;;;;;;;15.10;10.67;;;9.10;99.90;;;;;;5105635;28;20385;-80
2021/11/04 04:04:39;;;;;;;14.07;10.57;;;9.10;99.90;;;;;;5109347;28;20414;-80
2021/11/04 04:07:06;;;;;;;19.27;13.77;;;9.10;99.90;;;;;;5108149;28;20456;-81
2021/11/04 04:09:31;;;;;;;15.93;10.93;;;9.10;99.90;;;;;;5090205;28;20389;-81
2021/11/04 04:11:59;;;;;;;17.00;9.67;;;9.10;99.90;;;;;;5109334;28;20476;-82
2021/11/04 04:14:52;;;;;;;19.20;11.70;;;9.10;99.90;;;;;;5092785;28;20166;-80
2021/11/04 04:17:20;;;;;;;16.90;10.53;;;9.10;99.90;;;;;;5065293;28;20998;-81
2021/11/04 04:19:50;;;;;;;16.83;10.57;;;9.10;99.90;;;;;;5108542;28;20427;-81
2021/11/04 04:22:16;;;;;;;17.90;11.43;;;9.10;99.90;;;;;;5108343;28;20506;-80
2021/11/04 04:24:42;;;;;;;16.53;10.30;;;9.10;99.90;;;;;;5108915;28;20408;-81
2021/11/04 04:27:08;;;;;;;22.70;11.57;;;9.00;99.90;;;;;;5109433;28;20385;-81
2021/11/04 04:29:34;;;;;;;18.87;9.90;;;9.10;99.90;;;;;;5090561;28;20166;-81
2021/11/04 04:32:00;;;;;;;22.40;14.30;;;9.10;99.90;;;;;;5089724;28;20397;-80
2021/11/04 04:34:26;;;;;;;19.93;12.43;;;9.10;99.90;;;;;;5090977;28;20781;-80
2021/11/04 04:36:52;;;;;;;17.40;12.30;;;9.10;99.90;;;;;;5119680;28;20442;-80
2021/11/04 04:39:18;;;;;;;18.03;12.50;;;9.00;99.90;;;;;;5114484;28;20396;-80
2021/11/04 04:41:44;;;;;;;16.07;10.90;;;9.00;99.90;;;;;;5132194;28;20395;-82
2021/11/04 04:44:10;;;;;;;14.93;11.37;;;9.00;99.90;;;;;;5113180;28;20399;-80
2021/11/04 04:46:36;;;;;;;20.87;11.33;;;9.00;99.90;;;;;;5109851;28;20415;-81
2021/11/04 04:49:02;;;;;;;19.30;10.63;;;9.00;99.90;;;;;;5131528;28;20532;-82
2021/11/04 04:51:28;;;;;;;21.80;10.90;;;9.00;99.90;;;;;;5131602;28;20501;-81
2021/11/04 04:53:54;;;;;;;18.00;10.10;;;9.00;99.90;;;;;;5131650;28;20434;-82
2021/11/04 04:56:20;;;;;;;13.67;10.07;;;9.00;99.90;;;;;;5131661;28;20209;-81
2021/11/04 04:58:46;;;;;;;15.67;9.83;;;9.00;99.90;;;;;;5112674;28;20250;-82
2021/11/04 05:01:13;;;;;;;14.13;9.93;;;9.00;99.90;;;;;;5130910;28;20392;-81
2021/11/04 05:03:40;;;;;;;15.10;10.20;;;9.00;99.90;;;;;;5112993;28;20366;-81
2021/11/04 05:06:06;;;;;;;14.63;9.10;;;9.00;99.90;;;;;;5130368;28;20456;-82
2021/11/04 05:08:32;;;;;;;17.07;11.93;;;9.00;99.90;;;;;;5130015;28;20392;-81
2021/11/04 05:10:58;;;;;;;14.53;9.90;;;9.00;99.90;;;;;;5130258;28;20496;-82
2021/11/04 05:13:24;;;;;;;15.20;10.30;;;9.00;99.90;;;;;;5130650;28;20166;-82
2021/11/04 05:15:50;;;;;;;14.90;9.77;;;9.00;99.90;;;;;;5111844;28;20169;-81
2021/11/04 05:18:16;;;;;;;18.23;10.57;;;8.90;99.90;;;;;;5130378;28;20374;-82
2021/11/04 05:20:41;;;;;;;13.93;10.10;;;8.90;99.90;;;;;;5132451;28;20158;-81
2021/11/04 05:23:07;;;;;;;17.83;11.20;;;8.90;99.90;;;;;;5135462;28;20165;-82
2021/11/04 05:25:33;;;;;;;12.80;9.40;;;8.90;99.90;;;;;;5116360;28;20614;-82
2021/11/04 05:27:59;;;;;;;14.13;9.93;;;8.90;99.90;;;;;;5133532;28;20166;-80
2021/11/04 05:30:25;;;;;;;14.60;9.67;;;8.90;99.90;;;;;;5133571;28;20452;-81
2021/11/04 05:32:51;;;;;;;11.83;9.27;;;8.90;99.90;;;;;;5131533;28;20615;-81
2021/11/04 05:35:17;;;;;;;13.77;9.67;;;8.80;99.90;;;;;;5131669;28;20166;-81
2021/11/04 05:37:44;;;;;;;10.00;8.30;;;8.80;99.90;;;;;;5130682;28;20237;-81
2021/11/04 05:40:11;;;;;;;12.87;9.27;;;8.90;99.90;;;;;;5112516;28;20391;-81
2021/11/04 05:42:37;;;;;;;14.63;9.17;;;8.90;99.90;;;;;;5131269;28;20452;-81
2021/11/04 05:45:03;;;;;;;9.63;7.13;;;8.90;99.90;;;;;;5130698;28;20408;-81
2021/11/04 05:47:29;;;;;;;14.50;9.67;;;8.80;99.90;;;;;;5130739;28;20403;-80
2021/11/04 05:49:55;;;;;;;11.03;8.80;;;8.90;99.90;;;;;;5111972;28;20431;-81
2021/11/04 05:52:24;;;;;;;13.03;8.93;;;8.90;99.90;;;;;;5130669;28;20162;-81
2021/11/04 05:54:55;;;;;;;12.70;8.70;;;8.90;99.90;;;;;;5130521;28;20169;-81
2021/11/04 05:57:20;;;;;;;11.07;6.80;;;8.90;99.90;;;;;;5113295;28;20535;-81
2021/11/04 05:59:46;;;;;;;9.73;7.87;;;8.90;99.90;;;;;;5130635;28;20852;-79
2021/11/04 06:02:12;;;;;;;10.80;7.87;;;8.90;99.90;;;;;;5131052;27;20178;-81
2021/11/04 06:04:42;;;;;;;10.10;7.23;;;8.90;99.90;;;;;;5130196;28;20244;-80
2021/11/04 06:07:08;;;;;;;17.13;8.00;;;8.80;99.90;;;;;;5113679;28;20388;-81
2021/11/04 06:09:34;;;;;;;11.90;7.13;;;8.60;99.90;;;;;;5130770;28;20400;-81
2021/11/04 06:12:00;;;;;;;13.60;8.90;;;8.70;99.90;;;;;;5128057;28;20185;-81
2021/11/04 06:14:25;;;;;;;8.43;6.67;;;8.80;99.90;;;;;;5117632;28;20242;-81
2021/11/04 06:16:52;;;;;;;7.73;7.03;;;8.80;99.90;;;;;;5092535;28;20201;-81
2021/11/04 06:19:21;;;;;;;11.70;7.77;;;8.90;99.90;;;;;;5122514;28;20181;-81
2021/11/04 06:21:47;;;;;;;9.87;7.47;;;8.90;99.90;;;;;;5130631;28;20499;-81
2021/11/04 06:24:13;;;;;;;8.27;6.50;;;8.80;99.90;;;;;;5130222;28;20388;-81
2021/11/04 06:26:39;;;;;;;9.50;7.40;;;8.90;99.90;;;;;;5129912;28;20404;-80
2021/11/04 06:29:05;;;;;;;8.90;7.37;;;8.90;99.90;;;;;;5109420;28;20511;-80
2021/11/04 06:31:32;;;;;;;13.63;7.43;;;8.80;99.90;;;;;;5116548;28;20421;-81
2021/11/04 06:33:57;;;;;;;12.30;7.80;;;8.90;99.90;;;;;;5121955;28;20213;-82
2021/11/04 06:36:24;;;;;;;11.80;8.13;;;8.80;99.90;;;;;;5113590;28;20471;-82
2021/11/04 06:38:51;;;;;;;12.43;8.00;;;8.80;99.90;;;;;;5091892;28;20175;-83
2021/11/04 06:41:17;;;;;;;10.87;7.90;;;8.90;99.90;;;;;;5105782;28;20562;-82
2021/11/04 06:43:44;;;;;;;9.33;7.13;;;8.90;99.90;;;;;;5128989;28;20720;-82
2021/11/04 06:46:12;;;;;;;8.00;6.93;;;8.80;99.90;;;;;;5127353;28;20432;-82
2021/11/04 06:48:44;;;;;;;13.80;9.20;;;8.90;99.90;;;;;;5128582;28;20431;-80
2021/11/04 06:51:17;;;;;;;10.23;7.60;;;8.90;99.90;;;;;;5110185;28;20411;-81
2021/11/04 06:53:45;;;;;;;10.07;8.07;;;8.90;99.90;;;;;;5117455;28;20416;-81
2021/11/04 06:56:17;;;;;;;12.07;8.50;;;8.80;99.90;;;;;;5120330;28;20451;-80
2021/11/04 06:58:47;;;;;;;12.00;7.93;;;8.80;99.90;;;;;;5120706;28;20401;-81
2021/11/04 07:01:15;;;;;;;13.83;8.73;;;8.90;99.90;;;;;;5120450;28;20719;-80
2021/11/04 07:03:48;;;;;;;14.07;8.87;;;8.90;99.90;;;;;;5102846;28;20888;-79
2021/11/04 07:06:23;;;;;;;14.30;9.37;;;8.70;99.90;;;;;;5091949;28;20425;-81
2021/11/04 07:08:55;;;;;;;16.80;9.47;;;8.80;99.90;;;;;;5095610;28;20496;-81
2021/11/04 07:11:23;;;;;;;15.90;10.40;;;8.80;99.90;;;;;;5107653;28;20948;-80
2021/11/04 07:13:51;;;;;;;15.63;10.13;;;8.80;99.90;;;;;;5103427;28;20421;-81
2021/11/04 07:16:21;;;;;;;12.40;9.27;;;8.80;99.90;;;;;;5106215;28;20479;-83
2021/11/04 07:18:51;;;;;;;12.83;8.27;;;8.80;99.90;;;;;;5110470;28;20420;-81
2021/11/04 07:21:26;;;;;;;14.10;8.93;;;8.80;99.90;;;;;;5099377;28;20445;-82
2021/11/04 07:24:00;;;;;;;19.57;10.17;;;8.70;99.90;;;;;;5094353;28;20423;-81
2021/11/04 07:26:43;;;;;;;15.93;11.07;;;8.80;99.90;;;;;;5103165;28;20430;-82
2021/11/04 07:29:11;;;;;;;14.97;10.60;;;8.90;99.90;;;;;;5077730;28;20437;-81
2021/11/04 07:31:40;;;;;;;18.63;11.03;;;8.90;99.90;;;;;;5100865;28;20428;-81
2021/11/04 07:34:11;;;;;;;19.53;10.20;;;8.90;99.90;;;;;;5090884;28;20500;-83
2021/11/04 07:36:39;;;;;;;18.20;11.47;;;8.90;99.90;;;;;;5074342;28;20475;-82
2021/11/04 07:39:07;;;;;;;9.93;8.80;;;8.90;99.90;;;;;;5074312;28;20891;-81
2021/11/04 07:41:35;;;;;;;13.43;10.43;;;8.90;99.90;;;;;;5116212;28;20440;-81
2021/11/04 07:44:03;;;;;;;13.53;10.20;;;8.90;99.90;;;;;;5115105;28;20440;-82
2021/11/04 07:46:29;;;;;;;14.53;10.50;;;8.90;99.90;;;;;;5117375;28;20416;-81
2021/11/04 07:48:56;;;;;;;13.00;9.77;;;8.90;99.90;;;;;;5113676;28;20423;-82
2021/11/04 07:51:23;;;;;;;11.43;8.27;;;9.00;99.90;;;;;;5097760;28;20436;-80
2021/11/04 07:53:49;;;;;;;10.00;7.20;;;9.00;99.90;;;;;;5116037;28;20416;-81
2021/11/04 07:56:18;;;;;;;11.53;8.77;;;9.00;99.90;;;;;;5110864;28;20472;-80
2021/11/04 07:58:46;;;;;;;10.43;8.43;;;8.90;99.90;;;;;;5112114;28;20643;-80
2021/11/04 08:01:12;;;;;;;11.87;8.43;;;8.70;99.90;;;;;;5079218;28;20425;-80
2021/11/04 08:03:38;;;;;;;10.17;8.20;;;8.80;99.90;;;;;;5097700;28;20747;-82
2021/11/04 08:06:04;;;;;;;13.40;9.30;;;8.80;99.90;;;;;;5110894;28;20167;-80
2021/11/04 08:08:30;;;;;;;9.03;6.93;;;8.80;99.90;;;;;;5110786;28;20174;-80
2021/11/04 08:10:56;;;;;;;7.70;6.93;;;8.80;99.90;;;;;;5111863;28;20523;-82
2021/11/04 08:13:26;;;;;;;9.87;7.50;;;8.90;99.90;;;;;;5106659;28;20517;-81
2021/11/04 08:15:51;;;;;;;11.30;7.97;;;9.00;99.90;;;;;;5090626;28;20462;-81
2021/11/04 08:18:19;;;;;;;9.67;8.10;;;8.90;99.90;;;;;;5100914;28;20419;-81
2021/11/04 08:20:44;;;;;;;11.53;8.90;;;8.90;99.90;;;;;;5112717;28;20190;-81
2021/11/04 08:23:13;;;;;;;11.90;8.73;;;8.90;99.90;;;;;;5114308;28;20416;-81
2021/11/04 08:25:41;;;;;;;10.77;8.23;;;8.90;99.90;;;;;;5118384;28;20188;-80
2021/11/04 08:28:07;;;;;;;11.63;8.47;;;9.00;99.90;;;;;;5100565;28;20419;-82
2021/11/04 08:30:33;;;;;;;11.30;10.20;;;9.00;99.90;;;;;;5121869;28;20481;-81
2021/11/04 08:32:59;;;;;;;13.80;9.43;;;9.00;99.90;;;;;;5124286;28;20390;-80
2021/11/04 08:35:25;;;;;;;15.80;11.10;;;9.10;99.90;;;;;;5096918;28;20463;-81
2021/11/04 08:37:52;;;;;;;8.40;6.70;;;9.10;99.90;;;;;;5104753;28;20482;-81
2021/11/04 08:40:18;;;;;;;10.07;8.10;;;9.20;99.90;;;;;;5102706;28;20427;-82
2021/11/04 08:42:44;;;;;;;12.27;7.90;;;9.20;99.90;;;;;;5096774;28;20455;-81
2021/11/04 08:45:10;;;;;;;9.87;7.50;;;9.30;99.90;;;;;;5101524;28;20170;-81
2021/11/04 08:47:38;;;;;;;10.83;8.17;;;9.40;99.90;;;;;;5114780;28;20270;-80
2021/11/04 08:50:05;;;;;;;8.90;6.10;;;9.40;99.90;;;;;;5094009;28;20490;-81
2021/11/04 08:52:31;;;;;;;9.50;7.50;;;9.40;99.90;;;;;;5086325;28;20431;-81
2021/11/04 08:54:57;;;;;;;11.03;7.53;;;9.30;99.90;;;;;;5068380;28;20443;-81
2021/11/04 08:57:26;;;;;;;14.20;8.50;;;9.40;99.90;;;;;;5099530;28;20265;-82
2021/11/04 08:59:51;;;;;;;9.90;7.60;;;9.40;99.90;;;;;;5117286;28;20245;-82
2021/11/04 09:02:22;;;;;;;10.10;6.57;;;9.50;99.90;;;;;;5100962;28;20475;-81
2021/11/04 09:04:49;;;;;;;8.67;7.30;;;9.40;99.90;;;;;;5066406;28;20624;-82
2021/11/04 09:07:18;;;;;;;10.73;7.40;;;9.40;99.90;;;;;;5038743;28;20429;-81
2021/11/04 09:09:48;;;;;;;8.57;6.83;;;9.50;99.90;;;;;;5061742;28;20433;-81
2021/11/04 09:12:14;;;;;;;10.70;7.73;;;9.50;99.90;;;;;;5058532;28;20418;-81
2021/11/04 09:14:42;;;;;;;10.50;8.10;;;9.50;99.90;;;;;;5050041;28;20461;-80
2021/11/04 09:17:08;;;;;;;9.53;7.30;;;9.60;99.90;;;;;;5058647;28;20856;-82
2021/11/04 09:19:42;;;;;;;8.33;7.50;;;9.60;99.90;;;;;;5062747;28;20429;-82
2021/11/04 09:22:14;;;;;;;10.00;7.77;;;9.60;99.90;;;;;;4987901;28;20455;-81
2021/11/04 09:24:50;;;;;;;8.90;7.40;;;9.50;99.90;;;;;;4986399;28;20457;-79
2021/11/04 09:27:40;;;;;;;6.73;5.77;;;9.50;99.90;;;;;;4972238;28;20486;-81
2021/11/04 09:30:26;;;;;;;9.67;6.90;;;9.30;99.90;;;;;;4911666;29;20472;-80
2021/11/04 09:32:56;;;;;;;10.43;6.67;;;9.40;99.90;;;;;;4847999;29;20450;-79
2021/11/04 09:35:23;;;;;;;10.10;7.77;;;9.40;99.90;;;;;;4842944;29;20484;-80
2021/11/04 09:37:50;;;;;;;8.47;7.63;;;9.40;99.90;;;;;;4869557;29;20474;-80
2021/11/04 09:40:18;;;;;;;8.97;6.73;;;9.50;99.90;;;;;;4851390;29;20635;-80
2021/11/04 09:42:46;;;;;;;6.53;5.93;;;9.50;99.90;;;;;;4871703;29;21065;-79
2021/11/04 09:45:13;;;;;;;7.43;6.37;;;9.50;99.90;;;;;;4857288;29;20422;-79
2021/11/04 09:47:42;;;;;;;7.13;6.43;;;9.60;99.90;;;;;;4847367;29;20944;-80
2021/11/04 09:50:13;;;;;;;6.33;5.70;;;9.50;99.90;;;;;;4847828;29;20414;-79
2021/11/04 09:52:40;;;;;;;7.67;6.83;;;9.60;99.90;;;;;;4871048;29;20450;-81
2021/11/04 09:55:17;;;;;;;6.60;5.90;;;9.50;99.90;;;;;;4924844;29;20413;-81
2021/11/04 09:57:45;;;;;;;6.70;5.23;;;9.50;99.90;;;;;;4932823;29;20486;-81
2021/11/04 10:00:12;;;;;;;5.60;4.97;;;9.50;99.90;;;;;;4941741;28;20451;-80
2021/11/04 10:02:41;;;;;;;4.90;4.40;;;9.50;99.90;;;;;;4982487;28;20470;-81
2021/11/04 10:05:10;;;;;;;5.40;4.37;;;9.50;99.90;;;;;;4999310;28;20853;-79
2021/11/04 10:07:51;;;;;;;4.60;4.20;;;9.50;99.90;;;;;;4984485;28;20430;-82
2021/11/04 10:10:19;;;;;;;4.13;3.83;;;9.40;99.90;;;;;;4995850;28;20443;-82
2021/11/04 10:12:58;;;;;;;7.77;5.77;;;9.40;99.90;;;;;;5021818;28;21038;-82
2021/11/04 10:15:24;;;;;;;9.20;5.50;;;9.40;99.90;;;;;;5023222;28;20450;-81
2021/11/04 10:17:50;;;;;;;5.30;3.93;;;9.50;99.90;;;;;;5027481;28;20559;-83
2021/11/04 10:20:22;;;;;;;5.30;3.47;;;9.40;99.90;;;;;;5076060;27;20431;-83
2021/11/04 10:23:04;;;;;;;3.60;2.47;;;9.50;99.90;;;;;;5080425;27;20464;-81
2021/11/04 10:25:30;;;;;;;3.70;3.40;;;9.40;99.90;;;;;;5123515;27;20431;-82
2021/11/04 10:27:57;;;;;;;2.50;2.30;;;9.30;99.90;;;;;;5130677;27;20464;-81
2021/11/04 10:30:42;;;;;;;2.90;2.70;;;9.50;99.90;;;;;;5121475;27;20448;-81
2021/11/04 10:33:28;;;;;;;2.67;2.47;;;9.40;99.90;;;;;;5098259;28;20416;-81
2021/11/04 10:35:56;;;;;;;3.10;2.77;;;9.30;99.90;;;;;;5116370;28;20476;-82
2021/11/04 10:38:29;;;;;;;4.00;2.87;;;9.30;99.90;;;;;;5109891;27;20395;-82
2021/11/04 10:40:55;;;;;;;2.77;2.50;;;9.10;99.90;;;;;;5090859;28;20466;-82
2021/11/04 10:43:21;;;;;;;2.93;2.63;;;9.20;99.90;;;;;;5121433;28;20527;-81
2021/11/04 10:45:59;;;;;;;2.20;2.00;;;9.20;99.90;;;;;;5120295;28;20209;-82
2021/11/04 10:48:25;;;;;;;3.57;2.50;;;9.20;99.90;;;;;;5101535;28;20425;-82
2021/11/04 10:50:51;;;;;;;2.23;2.03;;;9.20;99.90;;;;;;5096827;28;20420;-81
2021/11/04 10:53:21;;;;;;;3.83;2.63;;;8.90;99.90;;;;;;5090940;28;20455;-82
2021/11/04 10:56:21;;;;;;;2.50;2.30;;;9.00;99.90;;;;;;5102054;28;20415;-80
2021/11/04 10:59:01;;;;;;;3.40;3.10;;;9.10;99.90;;;;;;5104445;28;20416;-80
2021/11/04 11:01:38;;;;;;;2.93;2.73;;;9.10;99.90;;;;;;5062325;28;20417;-79
2021/11/04 11:04:08;;;;;;;2.43;2.20;;;9.20;99.90;;;;;;5066671;28;20430;-79
2021/11/04 11:06:38;;;;;;;2.83;2.63;;;9.10;99.90;;;;;;5050419;28;20434;-80
2021/11/04 11:09:07;;;;;;;2.70;2.50;;;9.20;99.90;;;;;;5052110;28;20449;-80
2021/11/04 11:11:35;;;;;;;2.23;2.00;;;9.20;99.90;;;;;;5066982;28;20525;-82
2021/11/04 11:14:01;;;;;;;2.40;2.20;;;9.20;99.90;;;;;;5051653;28;20439;-81
2021/11/04 11:16:27;;;;;;;3.10;2.50;;;9.20;99.90;;;;;;5063820;28;20436;-80
2021/11/04 11:18:58;;;;;;;2.63;2.43;;;9.20;99.90;;;;;;5058468;28;20412;-81
2021/11/04 11:21:28;;;;;;;2.27;2.13;;;9.00;99.90;;;;;;5048287;28;20510;-80
2021/11/04 11:23:55;;;;;;;2.97;2.67;;;9.20;99.90;;;;;;5058024;28;20421;-80
2021/11/04 11:26:21;;;;;;;2.93;2.73;;;9.10;99.90;;;;;;5061976;28;20404;-81
2021/11/04 11:28:48;;;;;;;2.67;2.50;;;9.10;99.90;;;;;;5034459;28;20426;-81
2021/11/04 11:31:15;;;;;;;2.83;2.63;;;9.10;99.90;;;;;;5050137;28;20441;-81
2021/11/04 11:33:45;;;;;;;3.53;3.23;;;9.10;99.90;;;;;;5055819;28;20418;-81
2021/11/04 11:36:15;;;;;;;3.90;3.60;;;9.10;99.90;;;;;;5076425;28;20464;-81
2021/11/04 11:39:12;;;;;;;2.47;2.27;;;9.20;99.90;;;;;;5079844;28;20425;-82
2021/11/04 11:42:08;;;;;;;3.33;3.07;;;9.10;99.90;;;;;;5024993;28;20428;-82
2021/11/04 11:44:42;;;;;;;3.03;2.70;;;9.20;99.90;;;;;;5022955;28;20448;-81
2021/11/04 11:47:10;;;;;;;2.90;2.70;;;9.20;99.90;;;;;;5025546;28;20470;-81
2021/11/04 11:49:39;;;;;;;3.17;2.87;;;9.20;99.90;;;;;;5023421;28;20864;-82
2021/11/04 11:52:07;;;;;;;3.03;2.83;;;9.30;99.90;;;;;;5026297;28;20671;-81
2021/11/04 11:55:14;;;;;;;2.53;2.33;;;9.20;99.90;;;;;;5032669;28;20436;-81
2021/11/04 11:57:41;;;;;;;2.37;2.17;;;9.20;99.90;;;;;;5011892;28;20444;-81
2021/11/04 12:00:08;;;;;;;2.80;2.60;;;9.10;99.90;;;;;;5026169;28;20439;-79
2021/11/04 12:02:52;;;;;;;2.63;2.27;;;9.20;99.90;;;;;;5029355;28;20435;-81
2021/11/04 12:05:35;;;;;;;2.50;2.30;;;9.30;99.90;;;;;;5058427;28;20422;-81
2021/11/04 12:08:31;;;;;;;3.40;3.10;;;9.20;99.90;;;;;;5068893;28;20505;-79
2021/11/04 12:10:59;;;;;;;3.30;2.80;;;9.20;99.90;;;;;;5067456;28;20422;-80
2021/11/04 12:13:45;;;;;;;3.93;2.73;;;9.20;99.90;;;;;;5122974;28;20492;-82
2021/11/04 12:16:22;;;;;;;2.33;2.20;;;9.10;99.90;;;;;;5105448;28;20424;-81
2021/11/04 12:18:53;;;;;;;3.20;2.87;;;9.20;99.90;;;;;;5122003;28;20416;-79
2021/11/04 12:21:34;;;;;;;1.97;1.87;;;9.30;99.90;;;;;;5117487;28;20407;-79
2021/11/04 12:24:03;;;;;;;5.17;2.40;;;8.90;99.90;;;;;;5122521;28;20409;-80
2021/11/04 12:26:36;;;;;;;2.07;1.93;;;9.10;99.90;;;;;;5083350;28;20448;-79
2021/11/04 12:29:05;;;;;;;1.80;1.70;;;9.10;99.90;;;;;;5126690;28;20416;-81
2021/11/04 12:31:50;;;;;;;3.03;2.60;;;9.20;99.90;;;;;;5106540;28;20416;-79
2021/11/04 12:34:25;;;;;;;2.73;2.50;;;9.10;99.90;;;;;;5058325;28;20443;-80
2021/11/04 12:36:53;;;;;;;2.27;2.00;;;9.10;99.90;;;;;;5054272;28;20487;-78
2021/11/04 12:39:25;;;;;;;1.97;1.87;;;9.10;99.90;;;;;;5031120;28;20544;-79
2021/11/04 12:42:00;;;;;;;4.93;3.77;;;9.20;99.90;;;;;;4959442;28;20439;-80
2021/11/04 12:44:32;;;;;;;3.57;3.20;;;9.20;99.90;;;;;;4959999;28;20438;-79
2021/11/04 12:47:01;;;;;;;1.90;1.80;;;9.10;99.90;;;;;;4939538;28;20434;-80
2021/11/04 12:49:34;;;;;;;2.60;2.40;;;9.10;99.90;;;;;;4913228;29;20511;-77
2021/11/04 12:52:05;;;;;;;2.77;2.53;;;9.10;99.90;;;;;;4917034;29;20997;-80
2021/11/04 12:54:34;;;;;;;2.60;2.40;;;9.00;99.90;;;;;;4901522;29;20456;-81
2021/11/04 12:57:04;;;;;;;2.47;2.27;;;9.10;99.90;;;;;;4902582;29;20486;-79